sensor_id;sensor_type;location;lat;lon;timestamp;pressure;altitude;pressure_sealevel;temperature;humidity
37860;BME280;23698;52.014;5.190;2023-02-18T00:00:28;102224.50;;;9.82;100.00
37860;BME280;23698;52.014;5.190;2023-02-18T00:03:15;102240.13;;;9.60;100.00
37860;BME280;23698;52.014;5.190;2023-02-18T00:06:11;102248.47;;;9.49;100.00
37860;BME280;23698;52.014;5.190;2023-02-18T00:08:58;102273.31;;;9.62;100.00
37860;BME280;23698;52.014;5.190;2023-02-18T00:11:46;102278.50;;;9.56;100.00
37860;BME280;23698;52.014;5.190;2023-02-18T00:14:33;102289.09;;;9.49;100.00
37860;BME280;23698;52.014;5.190;2023-02-18T00:17:19;102306.81;;;9.34;100.00
37860;BME280;23698;52.014;5.190;2023-02-18T00:20:07;102326.09;;;9.49;100.00
37860;BME280;23698;52.014;5.190;2023-02-18T00:22:56;102343.28;;;9.67;100.00
37860;BME280;23698;52.014;5.190;2023-02-18T00:25:42;102338.63;;;9.59;100.00
37860;BME280;23698;52.014;5.190;2023-02-18T00:28:29;102339.41;;;9.42;100.00
37860;BME280;23698;52.014;5.190;2023-02-18T00:31:19;102351.50;;;9.48;100.00
37860;BME280;23698;52.014;5.190;2023-02-18T00:34:06;102379.69;;;9.45;100.00
37860;BME280;23698;52.014;5.190;2023-02-18T00:36:52;102377.84;;;9.45;100.00
37860;BME280;23698;52.014;5.190;2023-02-18T00:39:40;102393.56;;;9.32;100.00
37860;BME280;23698;52.014;5.190;2023-02-18T00:42:28;102403.41;;;9.14;100.00
37860;BME280;23698;52.014;5.190;2023-02-18T00:45:15;102421.59;;;9.51;100.00
37860;BME280;23698;52.014;5.190;2023-02-18T00:48:01;102427.56;;;9.35;100.00
37860;BME280;23698;52.014;5.190;2023-02-18T00:50:48;102422.75;;;9.29;100.00
37860;BME280;23698;52.014;5.190;2023-02-18T00:53:35;102428.06;;;9.11;100.00
37860;BME280;23698;52.014;5.190;2023-02-18T00:56:23;102441.94;;;9.45;100.00
37860;BME280;23698;52.014;5.190;2023-02-18T00:59:09;102448.84;;;9.20;100.00
37860;BME280;23698;52.014;5.190;2023-02-18T01:01:56;102453.25;;;9.21;100.00
37860;BME280;23698;52.014;5.190;2023-02-18T01:04:44;102466.06;;;9.09;100.00
37860;BME280;23698;52.014;5.190;2023-02-18T01:07:30;102477.16;;;9.06;100.00
37860;BME280;23698;52.014;5.190;2023-02-18T01:10:17;102505.94;;;9.17;100.00
37860;BME280;23698;52.014;5.190;2023-02-18T01:13:05;102520.91;;;9.21;100.00
37860;BME280;23698;52.014;5.190;2023-02-18T01:15:52;102526.88;;;9.15;100.00
37860;BME280;23698;52.014;5.190;2023-02-18T01:18:39;102547.53;;;9.35;100.00
37860;BME280;23698;52.014;5.190;2023-02-18T01:21:26;102551.25;;;9.24;100.00
37860;BME280;23698;52.014;5.190;2023-02-18T01:24:12;102560.31;;;9.14;100.00
37860;BME280;23698;52.014;5.190;2023-02-18T01:26:59;102568.75;;;9.20;100.00
37860;BME280;23698;52.014;5.190;2023-02-18T01:29:47;102564.03;;;9.22;100.00
37860;BME280;23698;52.014;5.190;2023-02-18T01:32:34;102573.44;;;9.18;100.00
37860;BME280;23698;52.014;5.190;2023-02-18T01:35:21;102576.88;;;9.30;100.00
37860;BME280;23698;52.014;5.190;2023-02-18T01:38:08;102566.03;;;9.20;100.00
37860;BME280;23698;52.014;5.190;2023-02-18T01:40:55;102577.16;;;9.27;100.00
37860;BME280;23698;52.014;5.190;2023-02-18T01:43:41;102576.03;;;9.39;100.00
37860;BME280;23698;52.014;5.190;2023-02-18T01:46:29;102567.34;;;9.45;100.00
37860;BME280;23698;52.014;5.190;2023-02-18T01:49:18;102586.41;;;9.34;100.00
37860;BME280;23698;52.014;5.190;2023-02-18T01:52:09;102581.72;;;9.36;100.00
37860;BME280;23698;52.014;5.190;2023-02-18T01:54:57;102589.84;;;9.26;100.00
37860;BME280;23698;52.014;5.190;2023-02-18T01:57:45;102593.97;;;9.31;100.00
37860;BME280;23698;52.014;5.190;2023-02-18T02:00:32;102605.97;;;9.48;100.00
37860;BME280;23698;52.014;5.190;2023-02-18T02:03:22;102607.66;;;9.58;100.00
37860;BME280;23698;52.014;5.190;2023-02-18T02:06:15;102609.06;;;9.43;100.00
37860;BME280;23698;52.014;5.190;2023-02-18T02:09:04;102600.53;;;9.28;100.00
37860;BME280;23698;52.014;5.190;2023-02-18T02:15:32;102621.47;;;9.36;100.00
37860;BME280;23698;52.014;5.190;2023-02-18T02:18:40;102629.59;;;9.55;100.00
37860;BME280;23698;52.014;5.190;2023-02-18T02:22:10;102638.88;;;9.62;100.00
37860;BME280;23698;52.014;5.190;2023-02-18T02:25:09;102646.44;;;9.69;100.00
37860;BME280;23698;52.014;5.190;2023-02-18T02:28:41;102629.91;;;9.72;100.00
37860;BME280;23698;52.014;5.190;2023-02-18T02:31:46;102619.34;;;9.69;100.00
37860;BME280;23698;52.014;5.190;2023-02-18T02:34:53;102620.91;;;9.81;100.00
37860;BME280;23698;52.014;5.190;2023-02-18T02:37:48;102619.78;;;10.03;100.00
37860;BME280;23698;52.014;5.190;2023-02-18T02:40:42;102603.09;;;9.98;100.00
37860;BME280;23698;52.014;5.190;2023-02-18T02:43:41;102597.84;;;9.67;100.00
37860;BME280;23698;52.014;5.190;2023-02-18T02:46:37;102610.78;;;9.93;100.00
37860;BME280;23698;52.014;5.190;2023-02-18T02:49:32;102591.13;;;9.81;100.00
37860;BME280;23698;52.014;5.190;2023-02-18T02:52:25;102598.94;;;10.04;100.00
37860;BME280;23698;52.014;5.190;2023-02-18T02:55:12;102587.84;;;9.77;100.00
37860;BME280;23698;52.014;5.190;2023-02-18T02:58:02;102592.06;;;10.09;100.00
37860;BME280;23698;52.014;5.190;2023-02-18T03:01:05;102574.50;;;10.13;100.00
37860;BME280;23698;52.014;5.190;2023-02-18T03:04:35;102562.97;;;10.11;100.00
37860;BME280;23698;52.014;5.190;2023-02-18T03:10:47;102551.41;;;10.19;100.00
37860;BME280;23698;52.014;5.190;2023-02-18T03:13:50;102538.69;;;10.29;100.00
37860;BME280;23698;52.014;5.190;2023-02-18T03:16:46;102536.75;;;10.12;100.00
37860;BME280;23698;52.014;5.190;2023-02-18T03:19:39;102529.47;;;10.02;100.00
37860;BME280;23698;52.014;5.190;2023-02-18T03:22:29;102526.06;;;10.00;100.00
37860;BME280;23698;52.014;5.190;2023-02-18T03:25:20;102520.66;;;10.00;100.00
37860;BME280;23698;52.014;5.190;2023-02-18T03:28:11;102514.66;;;10.07;100.00
37860;BME280;23698;52.014;5.190;2023-02-18T03:31:02;102506.94;;;10.12;100.00
37860;BME280;23698;52.014;5.190;2023-02-18T03:33:54;102508.47;;;10.14;100.00
37860;BME280;23698;52.014;5.190;2023-02-18T03:36:43;102499.44;;;10.24;100.00
37860;BME280;23698;52.014;5.190;2023-02-18T03:39:33;102486.50;;;10.17;100.00
37860;BME280;23698;52.014;5.190;2023-02-18T03:42:25;102480.81;;;10.20;100.00
37860;BME280;23698;52.014;5.190;2023-02-18T03:45:13;102482.75;;;10.28;100.00
37860;BME280;23698;52.014;5.190;2023-02-18T03:47:59;102466.69;;;10.17;100.00
37860;BME280;23698;52.014;5.190;2023-02-18T03:50:46;102464.22;;;10.24;100.00
37860;BME280;23698;52.014;5.190;2023-02-18T03:53:33;102459.84;;;10.13;100.00
37860;BME280;23698;52.014;5.190;2023-02-18T03:56:19;102474.06;;;10.25;100.00
37860;BME280;23698;52.014;5.190;2023-02-18T03:59:07;102474.66;;;10.18;100.00
37860;BME280;23698;52.014;5.190;2023-02-18T04:01:54;102466.50;;;10.28;100.00
37860;BME280;23698;52.014;5.190;2023-02-18T04:04:41;102477.91;;;10.22;100.00
37860;BME280;23698;52.014;5.190;2023-02-18T04:07:27;102473.94;;;10.26;100.00
37860;BME280;23698;52.014;5.190;2023-02-18T04:10:14;102465.66;;;10.28;100.00
37860;BME280;23698;52.014;5.190;2023-02-18T04:13:00;102478.31;;;10.37;100.00
37860;BME280;23698;52.014;5.190;2023-02-18T04:15:49;102480.59;;;10.42;100.00
37860;BME280;23698;52.014;5.190;2023-02-18T04:18:36;102470.41;;;10.16;100.00
37860;BME280;23698;52.014;5.190;2023-02-18T04:21:22;102473.06;;;10.26;100.00
37860;BME280;23698;52.014;5.190;2023-02-18T04:24:09;102474.22;;;10.23;100.00
37860;BME280;23698;52.014;5.190;2023-02-18T04:26:55;102481.59;;;10.41;100.00
37860;BME280;23698;52.014;5.190;2023-02-18T04:29:42;102472.06;;;10.27;100.00
37860;BME280;23698;52.014;5.190;2023-02-18T04:32:30;102470.94;;;10.19;100.00
37860;BME280;23698;52.014;5.190;2023-02-18T04:35:17;102465.75;;;10.08;100.00
37860;BME280;23698;52.014;5.190;2023-02-18T04:38:03;102470.78;;;9.93;100.00
37860;BME280;23698;52.014;5.190;2023-02-18T04:40:50;102482.00;;;10.08;100.00
37860;BME280;23698;52.014;5.190;2023-02-18T04:43:36;102484.59;;;10.00;100.00
37860;BME280;23698;52.014;5.190;2023-02-18T04:46:23;102477.03;;;9.94;100.00
37860;BME280;23698;52.014;5.190;2023-02-18T04:49:11;102464.78;;;9.99;100.00
37860;BME280;23698;52.014;5.190;2023-02-18T04:51:57;102464.50;;;9.93;100.00
37860;BME280;23698;52.014;5.190;2023-02-18T04:54:44;102462.72;;;10.11;100.00
37860;BME280;23698;52.014;5.190;2023-02-18T04:57:31;102460.22;;;9.90;100.00
37860;BME280;23698;52.014;5.190;2023-02-18T05:00:18;102451.16;;;10.09;100.00
37860;BME280;23698;52.014;5.190;2023-02-18T05:03:05;102444.44;;;9.86;100.00
37860;BME280;23698;52.014;5.190;2023-02-18T05:05:53;102441.31;;;9.80;100.00
37860;BME280;23698;52.014;5.190;2023-02-18T05:08:39;102458.69;;;9.78;100.00
37860;BME280;23698;52.014;5.190;2023-02-18T05:11:26;102461.69;;;9.85;100.00
37860;BME280;23698;52.014;5.190;2023-02-18T05:14:12;102470.06;;;9.91;100.00
37860;BME280;23698;52.014;5.190;2023-02-18T05:16:58;102470.63;;;9.95;100.00
37860;BME280;23698;52.014;5.190;2023-02-18T05:19:45;102472.09;;;9.79;100.00
37860;BME280;23698;52.014;5.190;2023-02-18T05:22:33;102469.81;;;9.85;100.00
37860;BME280;23698;52.014;5.190;2023-02-18T05:25:19;102471.63;;;9.94;100.00
37860;BME280;23698;52.014;5.190;2023-02-18T05:28:06;102466.34;;;9.92;100.00
37860;BME280;23698;52.014;5.190;2023-02-18T05:30:53;102462.38;;;9.87;100.00
37860;BME280;23698;52.014;5.190;2023-02-18T05:33:40;102462.72;;;9.74;100.00
37860;BME280;23698;52.014;5.190;2023-02-18T05:36:27;102454.72;;;9.82;100.00
37860;BME280;23698;52.014;5.190;2023-02-18T05:39:15;102463.63;;;9.92;100.00
37860;BME280;23698;52.014;5.190;2023-02-18T05:42:02;102446.16;;;9.77;100.00
37860;BME280;23698;52.014;5.190;2023-02-18T05:44:48;102444.63;;;9.64;100.00
37860;BME280;23698;52.014;5.190;2023-02-18T05:47:35;102442.31;;;9.70;100.00
37860;BME280;23698;52.014;5.190;2023-02-18T05:50:22;102443.69;;;9.83;100.00
37860;BME280;23698;52.014;5.190;2023-02-18T05:53:08;102434.38;;;9.68;100.00
37860;BME280;23698;52.014;5.190;2023-02-18T05:55:56;102447.38;;;9.92;100.00
37860;BME280;23698;52.014;5.190;2023-02-18T05:58:43;102450.63;;;9.96;100.00
37860;BME280;23698;52.014;5.190;2023-02-18T06:01:30;102453.97;;;9.90;100.00
37860;BME280;23698;52.014;5.190;2023-02-18T06:04:17;102435.16;;;9.78;100.00
37860;BME280;23698;52.014;5.190;2023-02-18T06:07:03;102428.97;;;9.96;100.00
37860;BME280;23698;52.014;5.190;2023-02-18T06:09:50;102432.78;;;9.75;100.00
37860;BME280;23698;52.014;5.190;2023-02-18T06:12:37;102444.25;;;9.87;100.00
37860;BME280;23698;52.014;5.190;2023-02-18T06:15:24;102455.56;;;9.82;100.00
37860;BME280;23698;52.014;5.190;2023-02-18T06:18:11;102458.25;;;9.82;100.00
37860;BME280;23698;52.014;5.190;2023-02-18T06:20:57;102457.81;;;9.87;100.00
37860;BME280;23698;52.014;5.190;2023-02-18T06:23:44;102455.28;;;9.86;100.00
37860;BME280;23698;52.014;5.190;2023-02-18T06:26:30;102462.25;;;9.78;100.00
37860;BME280;23698;52.014;5.190;2023-02-18T06:29:18;102471.66;;;9.84;100.00
37860;BME280;23698;52.014;5.190;2023-02-18T06:32:05;102460.00;;;9.74;100.00
37860;BME280;23698;52.014;5.190;2023-02-18T06:34:51;102465.22;;;9.85;100.00
37860;BME280;23698;52.014;5.190;2023-02-18T06:37:38;102462.78;;;9.92;100.00
37860;BME280;23698;52.014;5.190;2023-02-18T06:40:25;102479.16;;;10.00;100.00
37860;BME280;23698;52.014;5.190;2023-02-18T06:43:11;102465.84;;;9.79;100.00
37860;BME280;23698;52.014;5.190;2023-02-18T06:45:59;102471.19;;;9.98;100.00
37860;BME280;23698;52.014;5.190;2023-02-18T06:48:46;102458.41;;;9.81;100.00
37860;BME280;23698;52.014;5.190;2023-02-18T06:51:32;102465.63;;;9.90;100.00
37860;BME280;23698;52.014;5.190;2023-02-18T06:54:19;102460.91;;;9.92;100.00
37860;BME280;23698;52.014;5.190;2023-02-18T06:57:06;102456.22;;;9.94;100.00
37860;BME280;23698;52.014;5.190;2023-02-18T06:59:52;102456.53;;;9.91;100.00
37860;BME280;23698;52.014;5.190;2023-02-18T07:02:40;102460.06;;;9.92;100.00
37860;BME280;23698;52.014;5.190;2023-02-18T07:05:27;102443.13;;;9.90;100.00
37860;BME280;23698;52.014;5.190;2023-02-18T07:08:14;102439.78;;;10.06;100.00
37860;BME280;23698;52.014;5.190;2023-02-18T07:11:01;102441.38;;;9.98;100.00
37860;BME280;23698;52.014;5.190;2023-02-18T07:13:47;102444.50;;;10.04;100.00
37860;BME280;23698;52.014;5.190;2023-02-18T07:16:34;102429.56;;;9.90;100.00
37860;BME280;23698;52.014;5.190;2023-02-18T07:19:22;102439.31;;;9.73;100.00
37860;BME280;23698;52.014;5.190;2023-02-18T07:22:08;102435.75;;;9.82;100.00
37860;BME280;23698;52.014;5.190;2023-02-18T07:24:55;102448.13;;;9.85;100.00
37860;BME280;23698;52.014;5.190;2023-02-18T07:27:41;102418.06;;;9.78;100.00
37860;BME280;23698;52.014;5.190;2023-02-18T07:30:28;102419.00;;;9.96;100.00
37860;BME280;23698;52.014;5.190;2023-02-18T07:33:15;102416.31;;;9.87;100.00
37860;BME280;23698;52.014;5.190;2023-02-18T07:36:03;102399.25;;;9.76;100.00
37860;BME280;23698;52.014;5.190;2023-02-18T07:38:50;102393.19;;;9.92;100.00
37860;BME280;23698;52.014;5.190;2023-02-18T07:41:38;102374.72;;;9.78;100.00
37860;BME280;23698;52.014;5.190;2023-02-18T07:44:32;102359.91;;;9.82;100.00
37860;BME280;23698;52.014;5.190;2023-02-18T07:47:19;102350.03;;;9.91;100.00
37860;BME280;23698;52.014;5.190;2023-02-18T07:50:06;102332.16;;;9.70;100.00
37860;BME280;23698;52.014;5.190;2023-02-18T07:52:55;102322.31;;;9.69;100.00
37860;BME280;23698;52.014;5.190;2023-02-18T07:55:41;102301.97;;;9.65;100.00
37860;BME280;23698;52.014;5.190;2023-02-18T07:58:38;102286.19;;;9.78;100.00
37860;BME280;23698;52.014;5.190;2023-02-18T08:01:24;102265.25;;;9.80;100.00
37860;BME280;23698;52.014;5.190;2023-02-18T08:04:11;102234.53;;;9.72;100.00
37860;BME280;23698;52.014;5.190;2023-02-18T08:06:59;102209.13;;;9.73;100.00
37860;BME280;23698;52.014;5.190;2023-02-18T08:09:47;102182.59;;;9.76;100.00
37860;BME280;23698;52.014;5.190;2023-02-18T08:12:34;102149.09;;;9.77;100.00
37860;BME280;23698;52.014;5.190;2023-02-18T08:15:21;102113.91;;;9.77;100.00
37860;BME280;23698;52.014;5.190;2023-02-18T08:18:15;102087.03;;;9.66;100.00
37860;BME280;23698;52.014;5.190;2023-02-18T08:21:01;102059.66;;;9.69;100.00
37860;BME280;23698;52.014;5.190;2023-02-18T08:23:49;102028.34;;;9.67;100.00
37860;BME280;23698;52.014;5.190;2023-02-18T08:26:38;102008.47;;;9.58;100.00
37860;BME280;23698;52.014;5.190;2023-02-18T08:29:42;101992.13;;;9.68;100.00
37860;BME280;23698;52.014;5.190;2023-02-18T08:32:29;101962.13;;;9.61;100.00
37860;BME280;23698;52.014;5.190;2023-02-18T08:35:16;101963.28;;;9.58;100.00
37860;BME280;23698;52.014;5.190;2023-02-18T08:38:03;101927.81;;;9.70;100.00
37860;BME280;23698;52.014;5.190;2023-02-18T08:40:50;101909.63;;;9.54;100.00
37860;BME280;23698;52.014;5.190;2023-02-18T08:43:47;101904.38;;;9.52;100.00
37860;BME280;23698;52.014;5.190;2023-02-18T08:46:34;101892.28;;;9.64;100.00
37860;BME280;23698;52.014;5.190;2023-02-18T08:49:21;101905.22;;;9.53;100.00
37860;BME280;23698;52.014;5.190;2023-02-18T08:52:08;101903.50;;;9.78;100.00
37860;BME280;23698;52.014;5.190;2023-02-18T08:54:55;101901.50;;;9.54;100.00
37860;BME280;23698;52.014;5.190;2023-02-18T08:57:41;101906.59;;;9.57;100.00
37860;BME280;23698;52.014;5.190;2023-02-18T09:00:29;101913.75;;;9.40;100.00
37860;BME280;23698;52.014;5.190;2023-02-18T09:03:16;101919.44;;;9.55;100.00
37860;BME280;23698;52.014;5.190;2023-02-18T09:06:03;101936.69;;;9.54;100.00
37860;BME280;23698;52.014;5.190;2023-02-18T09:08:50;101924.72;;;9.56;100.00
37860;BME280;23698;52.014;5.190;2023-02-18T09:11:37;101904.28;;;9.62;100.00
37860;BME280;23698;52.014;5.190;2023-02-18T09:14:24;101895.16;;;9.63;100.00
37860;BME280;23698;52.014;5.190;2023-02-18T09:17:12;101895.56;;;9.50;100.00
37860;BME280;23698;52.014;5.190;2023-02-18T09:19:59;101875.75;;;9.76;100.00
37860;BME280;23698;52.014;5.190;2023-02-18T09:22:46;101862.84;;;9.70;100.00
37860;BME280;23698;52.014;5.190;2023-02-18T09:25:33;101847.78;;;9.67;100.00
37860;BME280;23698;52.014;5.190;2023-02-18T09:28:19;101835.38;;;9.91;100.00
37860;BME280;23698;52.014;5.190;2023-02-18T09:31:08;101835.25;;;9.66;100.00
37860;BME280;23698;52.014;5.190;2023-02-18T09:33:59;101824.97;;;9.78;100.00
37860;BME280;23698;52.014;5.190;2023-02-18T09:36:46;101822.22;;;9.61;100.00
37860;BME280;23698;52.014;5.190;2023-02-18T09:39:33;101803.16;;;9.79;100.00
37860;BME280;23698;52.014;5.190;2023-02-18T09:42:23;101789.50;;;9.89;100.00
37860;BME280;23698;52.014;5.190;2023-02-18T09:45:12;101776.25;;;9.78;100.00
37860;BME280;23698;52.014;5.190;2023-02-18T09:48:02;101788.81;;;9.95;100.00
37860;BME280;23698;52.014;5.190;2023-02-18T09:50:51;101776.28;;;9.86;100.00
37860;BME280;23698;52.014;5.190;2023-02-18T09:53:40;101776.41;;;9.76;100.00
37860;BME280;23698;52.014;5.190;2023-02-18T09:56:31;101775.78;;;9.91;100.00
37860;BME280;23698;52.014;5.190;2023-02-18T09:59:20;101778.22;;;10.18;100.00
37860;BME280;23698;52.014;5.190;2023-02-18T10:02:09;101764.59;;;9.86;100.00
37860;BME280;23698;52.014;5.190;2023-02-18T10:05:01;101755.81;;;9.92;100.00
37860;BME280;23698;52.014;5.190;2023-02-18T10:07:52;101759.91;;;10.04;100.00
37860;BME280;23698;52.014;5.190;2023-02-18T10:10:42;101751.28;;;10.25;100.00
37860;BME280;23698;52.014;5.190;2023-02-18T10:13:30;101738.06;;;10.22;100.00
37860;BME280;23698;52.014;5.190;2023-02-18T10:16:18;101734.38;;;10.23;100.00
37860;BME280;23698;52.014;5.190;2023-02-18T10:19:18;101723.50;;;10.15;100.00
37860;BME280;23698;52.014;5.190;2023-02-18T10:22:07;101733.22;;;10.34;100.00
37860;BME280;23698;52.014;5.190;2023-02-18T10:24:57;101733.34;;;10.24;100.00
37860;BME280;23698;52.014;5.190;2023-02-18T10:27:46;101729.78;;;10.15;100.00
37860;BME280;23698;52.014;5.190;2023-02-18T10:30:37;101746.22;;;10.30;100.00
37860;BME280;23698;52.014;5.190;2023-02-18T10:33:31;101755.84;;;10.16;100.00
37860;BME280;23698;52.014;5.190;2023-02-18T10:36:24;101755.03;;;10.24;100.00
37860;BME280;23698;52.014;5.190;2023-02-18T10:39:24;101756.09;;;10.31;100.00
37860;BME280;23698;52.014;5.190;2023-02-18T10:42:26;101752.03;;;10.35;100.00
37860;BME280;23698;52.014;5.190;2023-02-18T10:45:23;101755.94;;;10.33;100.00
37860;BME280;23698;52.014;5.190;2023-02-18T10:48:25;101747.81;;;10.57;100.00
37860;BME280;23698;52.014;5.190;2023-02-18T10:51:19;101735.91;;;10.34;100.00
37860;BME280;23698;52.014;5.190;2023-02-18T10:54:07;101750.69;;;10.64;100.00
37860;BME280;23698;52.014;5.190;2023-02-18T10:56:58;101743.56;;;10.55;100.00
37860;BME280;23698;52.014;5.190;2023-02-18T10:59:54;101737.25;;;10.71;100.00
37860;BME280;23698;52.014;5.190;2023-02-18T11:02:42;101731.16;;;10.61;100.00
37860;BME280;23698;52.014;5.190;2023-02-18T11:05:29;101718.28;;;10.79;100.00
37860;BME280;23698;52.014;5.190;2023-02-18T11:08:19;101713.53;;;10.89;100.00
37860;BME280;23698;52.014;5.190;2023-02-18T11:11:12;101706.38;;;10.88;100.00
37860;BME280;23698;52.014;5.190;2023-02-18T11:14:03;101703.53;;;10.82;100.00
37860;BME280;23698;52.014;5.190;2023-02-18T11:16:51;101723.88;;;10.94;100.00
37860;BME280;23698;52.014;5.190;2023-02-18T11:19:40;101693.63;;;11.13;100.00
37860;BME280;23698;52.014;5.190;2023-02-18T11:22:28;101685.25;;;11.23;100.00
37860;BME280;23698;52.014;5.190;2023-02-18T11:25:21;101688.66;;;11.25;100.00
37860;BME280;23698;52.014;5.190;2023-02-18T11:28:29;101686.22;;;11.39;100.00
37860;BME280;23698;52.014;5.190;2023-02-18T11:31:22;101692.78;;;11.52;100.00
37860;BME280;23698;52.014;5.190;2023-02-18T11:34:15;101682.34;;;11.33;100.00
37860;BME280;23698;52.014;5.190;2023-02-18T11:37:08;101675.91;;;11.34;100.00
37860;BME280;23698;52.014;5.190;2023-02-18T11:39:55;101673.53;;;11.31;100.00
37860;BME280;23698;52.014;5.190;2023-02-18T11:42:42;101679.81;;;11.31;100.00
37860;BME280;23698;52.014;5.190;2023-02-18T11:45:30;101682.72;;;11.22;100.00
37860;BME280;23698;52.014;5.190;2023-02-18T11:48:22;101684.00;;;11.42;100.00
37860;BME280;23698;52.014;5.190;2023-02-18T11:51:16;101675.81;;;11.11;100.00
37860;BME280;23698;52.014;5.190;2023-02-18T11:54:09;101677.44;;;11.28;100.00
37860;BME280;23698;52.014;5.190;2023-02-18T11:57:11;101666.69;;;11.43;100.00
37860;BME280;23698;52.014;5.190;2023-02-18T11:59:59;101680.16;;;11.28;100.00
37860;BME280;23698;52.014;5.190;2023-02-18T12:02:46;101671.81;;;11.38;100.00
37860;BME280;23698;52.014;5.190;2023-02-18T12:05:33;101669.91;;;11.47;100.00
37860;BME280;23698;52.014;5.190;2023-02-18T12:08:27;101669.41;;;11.75;100.00
37860;BME280;23698;52.014;5.190;2023-02-18T12:11:21;101654.72;;;11.84;100.00
37860;BME280;23698;52.014;5.190;2023-02-18T12:14:15;101649.25;;;11.69;100.00
37860;BME280;23698;52.014;5.190;2023-02-18T12:17:24;101639.69;;;11.73;100.00
37860;BME280;23698;52.014;5.190;2023-02-18T12:20:25;101633.91;;;11.76;100.00
37860;BME280;23698;52.014;5.190;2023-02-18T12:23:19;101633.84;;;11.84;100.00
37860;BME280;23698;52.014;5.190;2023-02-18T12:26:20;101625.84;;;11.60;100.00
37860;BME280;23698;52.014;5.190;2023-02-18T12:29:21;101631.91;;;11.70;100.00
37860;BME280;23698;52.014;5.190;2023-02-18T12:32:21;101634.75;;;11.53;100.00
37860;BME280;23698;52.014;5.190;2023-02-18T12:35:30;101631.50;;;11.81;100.00
37860;BME280;23698;52.014;5.190;2023-02-18T12:38:47;101616.84;;;11.90;100.00
37860;BME280;23698;52.014;5.190;2023-02-18T12:41:56;101616.13;;;11.97;100.00
37860;BME280;23698;52.014;5.190;2023-02-18T12:44:56;101611.38;;;11.99;100.00
37860;BME280;23698;52.014;5.190;2023-02-18T12:48:08;101621.69;;;11.72;100.00
37860;BME280;23698;52.014;5.190;2023-02-18T12:51:17;101627.53;;;11.69;100.00
37860;BME280;23698;52.014;5.190;2023-02-18T12:54:35;101637.72;;;11.90;100.00
37860;BME280;23698;52.014;5.190;2023-02-18T12:57:38;101647.50;;;12.22;100.00
37860;BME280;23698;52.014;5.190;2023-02-18T13:00:47;101644.97;;;12.21;100.00
37860;BME280;23698;52.014;5.190;2023-02-18T13:03:57;101642.81;;;12.16;100.00
37860;BME280;23698;52.014;5.190;2023-02-18T13:07:19;101649.16;;;12.08;100.00
37860;BME280;23698;52.014;5.190;2023-02-18T13:10:20;101635.72;;;12.07;100.00
37860;BME280;23698;52.014;5.190;2023-02-18T13:13:15;101647.88;;;11.96;100.00
37860;BME280;23698;52.014;5.190;2023-02-18T13:16:07;101649.16;;;12.08;100.00
37860;BME280;23698;52.014;5.190;2023-02-18T13:19:00;101647.56;;;12.14;100.00
37860;BME280;23698;52.014;5.190;2023-02-18T13:21:49;101650.50;;;12.13;100.00
37860;BME280;23698;52.014;5.190;2023-02-18T13:24:39;101653.25;;;12.04;100.00
37860;BME280;23698;52.014;5.190;2023-02-18T13:27:30;101656.28;;;12.09;100.00
37860;BME280;23698;52.014;5.190;2023-02-18T13:30:26;101646.00;;;11.97;100.00
37860;BME280;23698;52.014;5.190;2023-02-18T13:33:18;101646.88;;;11.89;100.00
37860;BME280;23698;52.014;5.190;2023-02-18T13:36:12;101650.22;;;12.22;100.00
37860;BME280;23698;52.014;5.190;2023-02-18T13:39:05;101643.06;;;12.06;100.00
37860;BME280;23698;52.014;5.190;2023-02-18T13:42:09;101643.06;;;12.06;100.00
37860;BME280;23698;52.014;5.190;2023-02-18T13:45:26;101631.72;;;12.18;100.00
37860;BME280;23698;52.014;5.190;2023-02-18T13:48:22;101639.38;;;11.99;100.00
37860;BME280;23698;52.014;5.190;2023-02-18T13:51:14;101630.19;;;12.23;100.00
37860;BME280;23698;52.014;5.190;2023-02-18T13:54:05;101641.91;;;12.39;100.00
37860;BME280;23698;52.014;5.190;2023-02-18T13:57:00;101629.06;;;12.33;100.00
37860;BME280;23698;52.014;5.190;2023-02-18T13:59:50;101632.78;;;12.17;100.00
37860;BME280;23698;52.014;5.190;2023-02-18T14:02:54;101629.28;;;12.46;100.00
37860;BME280;23698;52.014;5.190;2023-02-18T14:05:41;101638.41;;;12.30;100.00
37860;BME280;23698;52.014;5.190;2023-02-18T14:08:30;101634.03;;;12.44;100.00
37860;BME280;23698;52.014;5.190;2023-02-18T14:11:33;101654.25;;;12.50;100.00
37860;BME280;23698;52.014;5.190;2023-02-18T14:14:37;101631.78;;;12.33;100.00
37860;BME280;23698;52.014;5.190;2023-02-18T14:17:37;101615.03;;;12.59;100.00
37860;BME280;23698;52.014;5.190;2023-02-18T14:20:47;101615.31;;;12.49;100.00
37860;BME280;23698;52.014;5.190;2023-02-18T14:23:48;101625.09;;;12.58;100.00
37860;BME280;23698;52.014;5.190;2023-02-18T14:26:44;101633.34;;;12.80;100.00
37860;BME280;23698;52.014;5.190;2023-02-18T14:29:32;101615.03;;;12.59;100.00
37860;BME280;23698;52.014;5.190;2023-02-18T14:32:19;101615.78;;;12.97;100.00
37860;BME280;23698;52.014;5.190;2023-02-18T14:35:12;101617.66;;;12.82;100.00
37860;BME280;23698;52.014;5.190;2023-02-18T14:38:30;101631.16;;;12.45;100.00
37860;BME280;23698;52.014;5.190;2023-02-18T14:41:29;101631.00;;;12.62;100.00
37860;BME280;23698;52.014;5.190;2023-02-18T14:44:29;101620.59;;;12.65;100.00
37860;BME280;23698;52.014;5.190;2023-02-18T14:47:28;101627.69;;;12.52;100.00
37860;BME280;23698;52.014;5.190;2023-02-18T14:50:21;101624.31;;;12.50;100.00
37860;BME280;23698;52.014;5.190;2023-02-18T14:53:13;101637.16;;;12.41;100.00
37860;BME280;23698;52.014;5.190;2023-02-18T14:56:05;101642.13;;;12.52;100.00